createdAt,value
2023-01-30T00:01:20.190Z,1.87
2023-01-30T00:03:47.054Z,1.90
2023-01-30T00:06:13.830Z,1.87
2023-01-30T00:08:40.497Z,1.69
2023-01-30T00:11:08.717Z,1.69
2023-01-30T00:13:35.432Z,1.59
2023-01-30T00:16:02.335Z,1.64
2023-01-30T00:18:29.116Z,1.57
2023-01-30T00:20:56.944Z,1.52
2023-01-30T00:23:23.742Z,1.62
2023-01-30T00:25:50.801Z,1.46
2023-01-30T00:28:17.688Z,1.57
2023-01-30T00:30:44.425Z,1.57
2023-01-30T00:33:11.447Z,1.29
2023-01-30T00:35:38.248Z,1.49
2023-01-30T00:38:04.958Z,1.40
2023-01-30T00:40:31.668Z,1.52
2023-01-30T00:43:16.712Z,1.44
2023-01-30T00:46:03.573Z,1.38
2023-01-30T00:48:31.025Z,1.26
2023-01-30T00:50:58.047Z,1.22
2023-01-30T00:53:24.964Z,1.26
2023-01-30T00:55:52.207Z,1.31
2023-01-30T00:58:19.417Z,1.08
2023-01-30T01:00:46.270Z,0.99
2023-01-30T01:03:13.161Z,0.96
2023-01-30T01:05:39.910Z,0.85
2023-01-30T01:08:06.678Z,0.79
2023-01-30T01:10:33.948Z,0.78
2023-01-30T01:13:00.831Z,0.94
2023-01-30T01:15:27.631Z,0.47
2023-01-30T01:17:56.005Z,0.15
2023-01-30T01:20:23.318Z,0.61
2023-01-30T01:22:54.059Z,0.60
2023-01-30T01:25:23.397Z,0.52
2023-01-30T01:27:50.491Z,0.78
2023-01-30T01:30:17.989Z,0.82
2023-01-30T01:32:45.047Z,0.70
2023-01-30T01:35:12.187Z,0.69
2023-01-30T01:37:38.899Z,0.64
2023-01-30T01:40:24.581Z,0.57
2023-01-30T01:42:51.456Z,0.63
2023-01-30T01:45:18.700Z,0.62
2023-01-30T01:47:48.739Z,0.65
2023-01-30T01:50:19.087Z,0.08
2023-01-30T01:52:47.009Z,0.05
2023-01-30T01:55:14.488Z,0.41
2023-01-30T01:58:02.760Z,0.48
2023-01-30T02:00:29.601Z,0.42
2023-01-30T02:03:00.788Z,-0.13
2023-01-30T02:05:30.524Z,-0.38
2023-01-30T02:08:05.170Z,-0.54
2023-01-30T02:10:50.491Z,-0.12
2023-01-30T02:13:17.878Z,-0.47
2023-01-30T02:15:44.663Z,-0.40
2023-01-30T02:18:12.518Z,-0.82
2023-01-30T02:20:48.165Z,-0.46
2023-01-30T02:23:17.638Z,-0.58
2023-01-30T02:25:47.567Z,-0.43
2023-01-30T02:28:26.607Z,-0.17
2023-01-30T02:30:53.382Z,-0.73
2023-01-30T02:33:40.104Z,-0.42
2023-01-30T02:36:06.841Z,-0.48
2023-01-30T02:38:53.147Z,-0.52
2023-01-30T02:41:25.311Z,-0.55
2023-01-30T02:43:51.990Z,-0.47
2023-01-30T02:46:24.423Z,-0.24
2023-01-30T02:48:59.957Z,-0.30
2023-01-30T02:51:29.790Z,-0.22
2023-01-30T02:53:56.607Z,-0.24
2023-01-30T02:56:23.399Z,-0.13
2023-01-30T02:58:53.689Z,-0.16
2023-01-30T03:01:23.441Z,-0.09
2023-01-30T03:04:01.768Z,-0.35
2023-01-30T03:06:31.473Z,-0.48
2023-01-30T03:09:21.312Z,-0.28
2023-01-30T03:12:02.047Z,-0.63
2023-01-30T03:14:55.157Z,-0.33
2023-01-30T03:17:24.913Z,-0.25
2023-01-30T03:19:53.114Z,-0.27
2023-01-30T03:22:20.756Z,-0.51
2023-01-30T03:24:48.133Z,-0.48
2023-01-30T03:27:14.962Z,-1.24
2023-01-30T03:29:41.829Z,-0.50
2023-01-30T03:32:08.566Z,-0.55
2023-01-30T03:34:35.247Z,-0.39
2023-01-30T03:37:02.235Z,-0.21
2023-01-30T03:39:28.942Z,-0.32
2023-01-30T03:41:55.761Z,-0.18
2023-01-30T03:44:22.628Z,-0.48
2023-01-30T03:46:49.350Z,-0.46
2023-01-30T03:49:16.202Z,-0.58
2023-01-30T03:52:20.607Z,0.35
2023-01-30T03:54:47.407Z,0.35
2023-01-30T03:57:14.204Z,-1.05
2023-01-30T03:59:41.046Z,-1.21
2023-01-30T04:02:21.189Z,-0.74
2023-01-30T04:04:57.047Z,-0.38
2023-01-30T04:07:23.996Z,-0.44
2023-01-30T04:09:50.697Z,-0.32
2023-01-30T04:12:17.580Z,-0.27
2023-01-30T04:14:44.315Z,-0.17
2023-01-30T04:17:11.007Z,-0.50
2023-01-30T04:19:37.895Z,-0.34
2023-01-30T04:22:04.637Z,-0.15
2023-01-30T04:24:31.448Z,-0.06
2023-01-30T04:26:58.191Z,-0.09
2023-01-30T04:29:25.141Z,-0.19
2023-01-30T04:31:51.933Z,-0.23
2023-01-30T04:34:18.668Z,-0.05
2023-01-30T04:36:45.369Z,-0.11
2023-01-30T04:39:12.067Z,-0.12
2023-01-30T04:41:38.818Z,-0.20
2023-01-30T04:44:05.508Z,-0.22
2023-01-30T04:46:32.220Z,-0.39
2023-01-30T04:48:58.929Z,-0.38
2023-01-30T04:51:25.808Z,-0.36
2023-01-30T04:53:52.510Z,-0.35
2023-01-30T04:56:22.681Z,-0.29
2023-01-30T04:58:49.378Z,-0.31
2023-01-30T05:01:19.599Z,-0.50
2023-01-30T05:03:49.299Z,-0.48
2023-01-30T05:06:15.989Z,-0.81
2023-01-30T05:08:43.033Z,-0.46
2023-01-30T05:11:10.849Z,-0.45
2023-01-30T05:13:37.554Z,-0.46
2023-01-30T05:16:07.290Z,-0.41
2023-01-30T05:18:34.395Z,-0.62
2023-01-30T05:21:08.068Z,-0.50
2023-01-30T05:23:35.183Z,-0.39
2023-01-30T05:26:02.380Z,-0.46
2023-01-30T05:28:29.559Z,-0.48
2023-01-30T05:31:06.751Z,-0.51
2023-01-30T05:33:33.700Z,-0.43
2023-01-30T05:36:00.553Z,-0.81
2023-01-30T05:38:29.608Z,-0.65
2023-01-30T05:41:03.482Z,-0.48
2023-01-30T05:43:30.550Z,-0.62
2023-01-30T05:45:58.210Z,-0.50
2023-01-30T05:48:25.201Z,-0.51
2023-01-30T05:50:52.521Z,-0.66
2023-01-30T05:53:19.857Z,-0.72
2023-01-30T05:55:46.576Z,-0.59
2023-01-30T05:58:13.397Z,-0.51
2023-01-30T06:00:40.198Z,-0.64
2023-01-30T06:03:06.925Z,-0.67
2023-01-30T06:05:33.647Z,-0.49
2023-01-30T06:08:00.370Z,-0.58
2023-01-30T06:10:27.047Z,-0.57
2023-01-30T06:12:54.144Z,-2.17
2023-01-30T06:15:20.955Z,-1.97
2023-01-30T06:17:47.672Z,-1.25
2023-01-30T06:20:14.588Z,-1.02
2023-01-30T06:22:41.290Z,-1.28
2023-01-30T06:25:09.358Z,-1.45
2023-01-30T06:27:36.242Z,-1.09
2023-01-30T06:30:03.201Z,-1.40
2023-01-30T06:32:29.969Z,-0.97
2023-01-30T06:34:56.677Z,-0.84
2023-01-30T06:37:23.409Z,-0.80
2023-01-30T06:39:50.177Z,-0.66
2023-01-30T06:42:16.932Z,-0.46
2023-01-30T06:44:43.799Z,-0.16
2023-01-30T06:47:10.525Z,0.12
2023-01-30T06:49:37.267Z,0.28
2023-01-30T06:52:05.883Z,0.60
2023-01-30T06:54:32.758Z,1.22
2023-01-30T06:56:59.729Z,1.55
2023-01-30T06:59:26.500Z,2.10
2023-01-30T07:01:53.297Z,2.62
2023-01-30T07:04:20.076Z,3.13
2023-01-30T07:06:47.179Z,3.28
2023-01-30T07:09:13.958Z,3.72
2023-01-30T07:11:40.807Z,4.01
2023-01-30T07:14:07.527Z,4.65
2023-01-30T07:16:34.267Z,5.19
2023-01-30T07:19:01.104Z,5.62
2023-01-30T07:21:27.902Z,6.13
2023-01-30T07:23:54.722Z,5.84
2023-01-30T07:26:21.577Z,6.34
2023-01-30T07:28:48.352Z,6.24
2023-01-30T07:31:15.040Z,6.08
2023-01-30T07:33:41.781Z,6.32
2023-01-30T07:36:08.689Z,6.40
2023-01-30T07:38:36.849Z,6.78
2023-01-30T07:41:03.562Z,6.81
2023-01-30T07:43:30.381Z,6.99
2023-01-30T07:45:57.082Z,7.44
2023-01-30T07:48:23.839Z,7.92
2023-01-30T07:50:50.760Z,8.22
2023-01-30T07:53:18.814Z,8.36
2023-01-30T07:55:46.037Z,8.65
2023-01-30T07:58:14.408Z,9.07
2023-01-30T08:00:43.052Z,9.20
2023-01-30T08:03:13.726Z,9.60
2023-01-30T08:05:43.610Z,9.20
2023-01-30T08:08:10.474Z,8.75
2023-01-30T08:10:37.358Z,8.31
2023-01-30T08:13:04.261Z,7.99
2023-01-30T08:15:32.980Z,7.76
2023-01-30T08:18:00.100Z,7.24
2023-01-30T08:20:27.619Z,7.12
2023-01-30T08:22:54.771Z,6.62
2023-01-30T08:25:21.669Z,6.45
2023-01-30T08:27:48.634Z,5.98
2023-01-30T08:30:15.645Z,6.25
2023-01-30T08:32:42.609Z,5.84
2023-01-30T08:35:09.788Z,6.17
2023-01-30T08:37:36.674Z,5.92
2023-01-30T08:40:03.720Z,5.77
2023-01-30T08:42:30.563Z,6.19
2023-01-30T08:44:59.560Z,5.03
2023-01-30T08:47:27.366Z,5.35
2023-01-30T08:49:57.280Z,5.10
2023-01-30T08:52:24.349Z,5.04
2023-01-30T08:54:51.171Z,5.09
2023-01-30T08:59:45.192Z,5.49
2023-01-30T09:02:15.679Z,5.46
2023-01-30T09:04:44.692Z,5.69
2023-01-30T09:07:13.533Z,5.46
2023-01-30T09:09:40.639Z,6.03
2023-01-30T09:12:08.603Z,5.97
2023-01-30T09:14:35.670Z,6.12
2023-01-30T09:17:02.986Z,6.14
2023-01-30T09:19:32.152Z,6.34
2023-01-30T09:21:59.347Z,6.44
2023-01-30T09:24:34.212Z,6.58
2023-01-30T09:27:02.939Z,6.44
2023-01-30T09:29:33.962Z,6.49
2023-01-30T09:32:05.817Z,6.34
2023-01-30T09:34:36.973Z,6.16
2023-01-30T09:37:05.014Z,6.08
2023-01-30T09:39:32.191Z,6.22
2023-01-30T09:42:05.234Z,6.27
2023-01-30T09:44:41.299Z,6.32
2023-01-30T09:47:19.122Z,6.18
2023-01-30T09:49:55.086Z,6.18
2023-01-30T09:52:35.052Z,6.26
2023-01-30T09:55:24.756Z,6.13
2023-01-30T09:57:54.418Z,6.29
2023-01-30T10:00:44.609Z,6.26
2023-01-30T10:03:21.526Z,6.32
2023-01-30T10:05:49.980Z,6.41
2023-01-30T10:08:19.831Z,6.14
2023-01-30T10:11:09.608Z,6.09
2023-01-30T10:13:54.698Z,6.29
2023-01-30T10:16:28.830Z,6.30
2023-01-30T10:19:00.757Z,6.40
2023-01-30T10:21:35.759Z,6.44
2023-01-30T10:24:08.785Z,6.64
2023-01-30T10:26:35.616Z,6.33
2023-01-30T10:29:07.537Z,6.33
2023-01-30T10:31:44.747Z,6.20
2023-01-30T10:34:14.828Z,6.28
2023-01-30T10:36:49.215Z,6.26
2023-01-30T10:39:23.141Z,6.21
2023-01-30T10:41:59.369Z,6.44
2023-01-30T10:44:26.355Z,6.40
2023-01-30T10:46:59.508Z,6.36
2023-01-30T10:49:46.883Z,6.75
2023-01-30T10:52:24.669Z,6.90
2023-01-30T10:55:00.559Z,7.38
2023-01-30T10:57:38.808Z,8.01
2023-01-30T11:00:10.801Z,8.08
2023-01-30T11:02:58.464Z,8.60
2023-01-30T11:05:26.329Z,8.52
2023-01-30T11:07:53.254Z,8.84
2023-01-30T11:10:24.569Z,8.52
2023-01-30T11:12:56.527Z,9.31
2023-01-30T11:15:28.196Z,9.33
2023-01-30T11:18:49.717Z,9.31
2023-01-30T11:21:01.508Z,10.06
2023-01-30T11:23:40.621Z,9.22
2023-01-30T11:26:11.795Z,8.95
2023-01-30T11:28:49.149Z,8.79
2023-01-30T11:31:44.487Z,8.22
2023-01-30T11:34:18.441Z,8.91
2023-01-30T11:36:47.613Z,8.93
2023-01-30T11:39:14.796Z,9.40
2023-01-30T11:41:42.799Z,9.30
2023-01-30T11:44:12.007Z,9.60
2023-01-30T11:46:40.156Z,9.39
2023-01-30T11:49:47.286Z,9.80
2023-01-30T11:52:08.454Z,9.83
2023-01-30T11:54:41.530Z,10.19
2023-01-30T11:57:12.320Z,10.26
2023-01-30T11:59:50.077Z,10.32
2023-01-30T12:02:29.310Z,10.18
2023-01-30T12:04:57.579Z,10.01
2023-01-30T12:07:26.261Z,9.88
2023-01-30T12:09:55.142Z,9.50
2023-01-30T12:12:39.385Z,9.52
2023-01-30T12:15:19.366Z,9.36
2023-01-30T12:17:50.273Z,8.96
2023-01-30T12:20:26.624Z,9.30
2023-01-30T12:23:00.746Z,9.33
2023-01-30T12:25:35.024Z,9.31
2023-01-30T12:28:18.974Z,9.31
2023-01-30T12:30:59.007Z,8.95
2023-01-30T12:33:28.880Z,8.20
2023-01-30T12:36:01.912Z,8.22
2023-01-30T12:38:40.118Z,7.33
2023-01-30T12:41:16.249Z,7.07
2023-01-30T12:43:56.117Z,7.30
2023-01-30T12:46:38.276Z,7.40
2023-01-30T12:49:11.316Z,7.91
2023-01-30T12:51:51.660Z,7.86
2023-01-30T12:54:33.637Z,7.77
2023-01-30T12:57:23.178Z,8.39
2023-01-30T13:00:16.331Z,8.64
2023-01-30T13:02:49.257Z,8.87
2023-01-30T13:05:21.669Z,9.10
2023-01-30T13:08:11.541Z,8.65
2023-01-30T13:10:41.130Z,8.51
2023-01-30T13:13:25.199Z,8.78
2023-01-30T13:16:12.161Z,8.51
2023-01-30T13:18:55.726Z,8.53
2023-01-30T13:21:45.145Z,8.57
2023-01-30T13:24:22.768Z,8.71
2023-01-30T13:26:51.126Z,8.67
2023-01-30T13:29:33.517Z,8.73
2023-01-30T13:32:03.067Z,8.51
2023-01-30T13:34:34.394Z,8.69
2023-01-30T13:37:11.097Z,8.60
2023-01-30T13:39:42.375Z,8.47
2023-01-30T13:42:28.109Z,8.22
2023-01-30T13:44:57.888Z,8.02
2023-01-30T13:47:45.021Z,8.23
2023-01-30T13:50:41.439Z,7.42
2023-01-30T13:53:21.897Z,7.57
2023-01-30T13:56:32.936Z,7.87
2023-01-30T13:59:12.301Z,7.87
2023-01-30T14:02:00.058Z,7.83
2023-01-30T14:04:42.560Z,7.25
2023-01-30T14:07:12.248Z,7.54
2023-01-30T14:09:49.140Z,6.40
2023-01-30T14:12:20.602Z,7.06
2023-01-30T14:15:07.652Z,7.36
2023-01-30T14:17:34.634Z,7.54
2023-01-30T14:20:04.502Z,7.67
2023-01-30T14:22:36.950Z,7.65
2023-01-30T14:25:22.735Z,7.82
2023-01-30T14:27:53.107Z,7.88
2023-01-30T14:30:32.250Z,7.48
2023-01-30T14:33:00.578Z,7.67
2023-01-30T14:35:32.868Z,7.55
2023-01-30T14:38:12.018Z,7.50
2023-01-30T14:40:40.078Z,7.09
2023-01-30T14:43:15.231Z,6.98
2023-01-30T14:45:57.103Z,7.13
2023-01-30T14:48:37.607Z,7.07
2023-01-30T14:51:10.328Z,7.12
2023-01-30T14:53:47.922Z,7.38
2023-01-30T14:56:17.000Z,7.62
2023-01-30T14:58:57.135Z,7.55
2023-01-30T15:01:25.109Z,7.51
2023-01-30T15:03:52.260Z,7.31
2023-01-30T15:06:22.537Z,7.60
2023-01-30T15:08:50.426Z,7.54
2023-01-30T15:11:21.531Z,7.48
2023-01-30T15:13:55.297Z,7.63
2023-01-30T15:16:34.175Z,7.64
2023-01-30T15:19:19.449Z,7.93
2023-01-30T15:21:51.208Z,8.03
2023-01-30T15:24:33.260Z,8.04
2023-01-30T15:27:14.520Z,7.74
2023-01-30T15:29:50.703Z,7.90
2023-01-30T15:32:23.129Z,7.92
2023-01-30T15:35:10.079Z,7.95
2023-01-30T15:37:40.281Z,8.11
2023-01-30T15:40:19.289Z,7.96
2023-01-30T15:43:05.815Z,8.02
2023-01-30T15:45:51.503Z,8.07
2023-01-30T15:48:36.928Z,7.57
2023-01-30T15:51:04.318Z,5.82
2023-01-30T15:53:34.691Z,5.89
2023-01-30T15:56:03.538Z,6.86
2023-01-30T15:58:38.248Z,6.34
2023-01-30T16:01:10.633Z,6.16
2023-01-30T16:03:42.808Z,6.65
2023-01-30T16:06:24.788Z,6.32
2023-01-30T16:08:58.709Z,6.05
2023-01-30T16:11:35.648Z,6.14
2023-01-30T16:14:02.497Z,6.10
2023-01-30T16:16:57.654Z,5.72
2023-01-30T16:19:34.840Z,5.44
2023-01-30T16:22:04.300Z,5.73
2023-01-30T16:24:33.164Z,5.13
2023-01-30T16:27:02.942Z,5.51
2023-01-30T16:29:33.553Z,4.19
2023-01-30T16:32:00.755Z,4.46
2023-01-30T16:34:37.162Z,4.65
2023-01-30T16:37:21.938Z,5.17
2023-01-30T16:40:07.497Z,5.68
2023-01-30T16:42:34.359Z,5.10
2023-01-30T16:45:21.717Z,5.11
2023-01-30T16:47:48.540Z,5.70
2023-01-30T16:50:21.515Z,5.16
2023-01-30T16:52:52.014Z,5.25
2023-01-30T16:55:20.680Z,4.29
2023-01-30T16:57:50.517Z,4.70
2023-01-30T17:00:29.488Z,5.34
2023-01-30T17:02:57.914Z,5.66
2023-01-30T17:05:29.521Z,5.21
2023-01-30T17:07:57.021Z,5.80
2023-01-30T17:10:41.881Z,5.87
2023-01-30T17:13:28.032Z,6.08
2023-01-30T17:15:55.115Z,6.26
2023-01-30T17:18:21.918Z,6.23
2023-01-30T17:20:51.418Z,6.22
2023-01-30T17:23:19.432Z,6.32
2023-01-30T17:25:48.238Z,6.13
2023-01-30T17:28:21.519Z,5.19
2023-01-30T17:30:49.068Z,4.42
2023-01-30T17:33:17.972Z,4.64
2023-01-30T17:35:45.301Z,5.60
2023-01-30T17:38:12.437Z,5.65
2023-01-30T17:40:39.517Z,6.07
2023-01-30T17:43:06.368Z,5.70
2023-01-30T17:45:33.205Z,5.89
2023-01-30T17:47:59.965Z,5.99
2023-01-30T17:50:28.580Z,5.94
2023-01-30T17:52:55.348Z,5.77
2023-01-30T17:55:22.464Z,5.82
2023-01-30T17:57:49.711Z,5.67
2023-01-30T18:00:20.300Z,5.89
2023-01-30T18:02:47.461Z,6.12
2023-01-30T18:05:14.709Z,4.66
2023-01-30T18:07:41.671Z,5.30
2023-01-30T18:10:12.329Z,5.74
2023-01-30T18:12:39.070Z,5.11
2023-01-30T18:15:06.047Z,5.24
2023-01-30T18:17:32.880Z,5.46
2023-01-30T18:20:01.297Z,5.51
2023-01-30T18:22:28.073Z,5.59
2023-01-30T18:24:54.808Z,5.68
2023-01-30T18:27:21.578Z,5.66
2023-01-30T18:29:48.251Z,5.88
2023-01-30T18:32:14.999Z,5.44
2023-01-30T18:34:42.090Z,5.27
2023-01-30T18:37:08.884Z,5.62
2023-01-30T18:39:36.973Z,4.70
2023-01-30T18:42:04.350Z,4.89
2023-01-30T18:44:31.357Z,5.28
2023-01-30T18:46:58.550Z,5.46
2023-01-30T18:49:25.353Z,4.60
2023-01-30T18:51:52.107Z,4.97
2023-01-30T18:54:18.864Z,5.14
2023-01-30T18:56:45.681Z,5.42
2023-01-30T18:59:12.551Z,5.63
2023-01-30T19:01:42.732Z,5.85
2023-01-30T19:04:10.591Z,5.83
2023-01-30T19:06:39.389Z,5.80
2023-01-30T19:09:06.601Z,5.84
2023-01-30T19:11:53.588Z,5.86
2023-01-30T19:14:20.452Z,5.86
2023-01-30T19:16:47.440Z,5.84
2023-01-30T19:19:14.361Z,5.84
2023-01-30T19:21:41.150Z,5.79
2023-01-30T19:24:11.548Z,4.44
2023-01-30T19:26:38.343Z,4.41
2023-01-30T19:29:05.488Z,4.93
2023-01-30T19:31:32.377Z,5.06
2023-01-30T19:34:01.137Z,5.28
2023-01-30T19:36:29.390Z,5.22
2023-01-30T19:38:59.345Z,5.03
2023-01-30T19:41:28.152Z,4.08
2023-01-30T19:43:55.661Z,4.75
2023-01-30T19:46:23.894Z,4.67
2023-01-30T19:48:50.692Z,4.69
2023-01-30T19:51:43.860Z,3.86
2023-01-30T19:54:11.949Z,4.60
2023-01-30T19:56:42.732Z,3.39
2023-01-30T19:59:11.322Z,3.72
2023-01-30T20:01:40.578Z,3.47
2023-01-30T20:04:08.699Z,3.74
2023-01-30T20:06:36.218Z,3.44
2023-01-30T20:09:08.615Z,2.70
2023-01-30T20:11:36.330Z,2.48
2023-01-30T20:14:23.147Z,3.23
2023-01-30T20:17:09.819Z,3.43
2023-01-30T20:19:36.538Z,3.26
2023-01-30T20:22:08.294Z,3.10
2023-01-30T20:24:47.794Z,3.12
2023-01-30T20:27:15.168Z,3.19
2023-01-30T20:29:41.946Z,3.43
2023-01-30T20:32:08.860Z,3.51
2023-01-30T20:34:35.697Z,3.62
2023-01-30T20:37:02.390Z,3.50
2023-01-30T20:39:29.696Z,3.22
2023-01-30T20:41:56.458Z,3.48
2023-01-30T20:44:24.491Z,3.53
2023-01-30T20:46:51.473Z,3.58
2023-01-30T20:49:19.630Z,3.52
2023-01-30T20:51:47.150Z,3.62
2023-01-30T20:54:15.016Z,3.48
2023-01-30T20:56:43.929Z,3.51
2023-01-30T20:59:12.093Z,3.46
2023-01-30T21:01:39.458Z,3.60
2023-01-30T21:04:07.468Z,3.58
2023-01-30T21:06:42.437Z,3.47
2023-01-30T21:09:15.900Z,3.41
2023-01-30T21:11:43.311Z,3.42
2023-01-30T21:14:12.056Z,3.37
2023-01-30T21:16:39.395Z,2.94
2023-01-30T21:19:07.475Z,3.26
2023-01-30T21:21:35.941Z,3.12
2023-01-30T21:24:04.505Z,3.19
2023-01-30T21:26:32.235Z,2.99
2023-01-30T21:29:03.008Z,3.19
2023-01-30T21:31:30.946Z,3.35
2023-01-30T21:33:59.684Z,2.56
2023-01-30T21:36:27.333Z,2.72
2023-01-30T21:39:12.962Z,2.32
2023-01-30T21:41:59.713Z,2.65
2023-01-30T21:44:28.207Z,2.98
2023-01-30T21:46:55.191Z,2.82
2023-01-30T21:49:25.463Z,2.87
2023-01-30T21:51:52.662Z,2.98
2023-01-30T21:54:19.587Z,3.01
2023-01-30T21:56:48.885Z,2.99
2023-01-30T21:59:15.809Z,2.72
2023-01-30T22:01:42.700Z,2.89
2023-01-30T22:04:10.999Z,2.44
2023-01-30T22:06:38.871Z,2.41
2023-01-30T22:09:06.023Z,2.59
2023-01-30T22:11:33.040Z,2.67
2023-01-30T22:13:59.821Z,2.70
2023-01-30T22:16:33.750Z,2.77
2023-01-30T22:19:01.764Z,2.75
2023-01-30T22:21:32.481Z,2.81
2023-01-30T22:23:59.561Z,2.85
2023-01-30T22:26:28.625Z,2.66
2023-01-30T22:28:56.524Z,2.45
2023-01-30T22:31:43.390Z,2.80
2023-01-30T22:34:30.587Z,2.43
2023-01-30T22:37:01.797Z,2.36
2023-01-30T22:39:28.520Z,1.88
2023-01-30T22:42:15.370Z,1.62
2023-01-30T22:44:46.570Z,2.25
2023-01-30T22:47:13.673Z,2.05
2023-01-30T22:50:00.372Z,1.45
2023-01-30T22:52:38.287Z,1.88
2023-01-30T22:55:09.544Z,1.73
2023-01-30T22:57:36.835Z,1.92
2023-01-30T23:00:09.409Z,1.66
2023-01-30T23:02:36.215Z,1.68
2023-01-30T23:05:04.296Z,1.49
2023-01-30T23:07:31.040Z,0.96
2023-01-30T23:10:03.143Z,1.47
2023-01-30T23:12:48.561Z,1.57
2023-01-30T23:15:15.275Z,1.57
2023-01-30T23:18:00.501Z,1.44
2023-01-30T23:20:27.219Z,1.34
2023-01-30T23:22:54.700Z,1.33
2023-01-30T23:25:21.690Z,1.10
2023-01-30T23:27:48.719Z,1.16
2023-01-30T23:30:15.575Z,1.44
2023-01-30T23:32:42.430Z,0.71
2023-01-30T23:35:09.688Z,0.65
2023-01-30T23:37:54.968Z,0.68
2023-01-30T23:40:22.129Z,0.48
2023-01-30T23:42:48.832Z,0.05
2023-01-30T23:45:15.766Z,0.25
2023-01-30T23:47:43.618Z,0.45
2023-01-30T23:50:10.977Z,0.03
2023-01-30T23:52:38.719Z,-0.27
2023-01-30T23:55:06.892Z,-0.19
2023-01-30T23:57:33.580Z,0.37
